Lumberville, Pennsylvania
Current Conditions -  °F | °C
As of 10:54 AM on Saturday 25 Oct 2014 (Local Time) from KDYL Reporting Station
Clear Clear  
Wind Chill: 59°   Ceiling: Unl
Heat Index: 59°   Visibility: 10mi
Dew Point: 41°   Wind: 8mph
Humidity: 51%   Direction: 270°W
Pressure: 29.87"   Gusts: NA
Location:  40.41°N, 75.04°W
Report Text: KDYL 251454Z AUTO 27007KT 250V310 10SM CLR 15/05 A2987 RMK AO2 SLP115 T01500050 58012 $
Loading
Personal Weather Stations






























Interactive Weather Map
Tropical Storm Tracking
New forecast layout! Learn more

10-Day Weather Forecast

Advertisements
Track Severe Weather on mobile